createdAt,value
2018-07-01T00:00:56.837Z,19.66
2018-07-01T00:01:56.783Z,19.49
2018-07-01T00:02:56.724Z,19.52
2018-07-01T00:03:56.707Z,19.48
2018-07-01T00:04:56.659Z,19.47
2018-07-01T00:05:56.628Z,19.39
2018-07-01T00:06:56.618Z,19.44
2018-07-01T00:07:56.602Z,19.41
2018-07-01T00:08:56.546Z,19.48
2018-07-01T00:09:56.516Z,19.51
2018-07-01T00:10:56.461Z,19.52
2018-07-01T00:11:56.427Z,19.39
2018-07-01T00:12:56.458Z,19.39
2018-07-01T00:13:56.370Z,19.34
2018-07-01T00:14:56.356Z,19.36
2018-07-01T00:15:56.308Z,19.27
2018-07-01T00:16:56.341Z,19.18
2018-07-01T00:17:56.244Z,19.22
2018-07-01T00:18:56.233Z,19.15
2018-07-01T00:19:56.221Z,19.21
2018-07-01T00:20:56.147Z,19.21
2018-07-01T00:21:56.116Z,19.16
2018-07-01T00:22:56.549Z,19.21
2018-07-01T00:23:56.063Z,19.19
2018-07-01T00:24:56.030Z,19.18
2018-07-01T00:25:56.007Z,19.21
2018-07-01T00:26:55.967Z,19.18
2018-07-01T00:27:55.943Z,19.18
2018-07-01T00:28:55.899Z,19.04
2018-07-01T00:29:55.866Z,19.02
2018-07-01T00:30:55.869Z,19.09
2018-07-01T00:31:55.795Z,19.07
2018-07-01T00:32:55.802Z,19.14
2018-07-01T00:33:55.741Z,19.07
2018-07-01T00:34:55.745Z,19.04
2018-07-01T00:35:55.709Z,19.04
2018-07-01T00:36:55.650Z,18.89
2018-07-01T00:37:55.659Z,19.00
2018-07-01T00:38:55.570Z,18.92
2018-07-01T00:39:55.558Z,18.92
2018-07-01T00:40:55.507Z,19.02
2018-07-01T00:41:55.469Z,19.07
2018-07-01T00:42:55.436Z,19.00
2018-07-01T00:43:55.424Z,19.02
2018-07-01T00:44:55.398Z,19.04
2018-07-01T00:45:55.353Z,18.93
2018-07-01T00:46:55.325Z,18.83
2018-07-01T00:47:55.297Z,18.84
2018-07-01T00:48:55.246Z,18.88
2018-07-01T00:49:55.242Z,18.84
2018-07-01T00:50:55.210Z,18.77
2018-07-01T00:51:55.147Z,18.89
2018-07-01T00:52:55.122Z,18.83
2018-07-01T00:53:55.093Z,18.73
2018-07-01T00:54:55.055Z,18.77
2018-07-01T00:55:55.026Z,18.78
2018-07-01T00:56:54.990Z,18.83
2018-07-01T00:57:54.960Z,18.73
2018-07-01T00:58:54.928Z,18.71
2018-07-01T00:59:54.912Z,18.75
2018-07-01T01:00:54.856Z,18.73
2018-07-01T01:01:54.829Z,18.74
2018-07-01T01:02:54.814Z,18.63
2018-07-01T01:03:54.784Z,18.62
2018-07-01T01:04:54.763Z,18.62
2018-07-01T01:05:54.708Z,18.49
2018-07-01T01:06:54.702Z,18.53
2018-07-01T01:07:54.649Z,18.44
2018-07-01T01:08:54.614Z,18.49
2018-07-01T01:09:54.627Z,18.47
2018-07-01T01:10:54.541Z,18.45
2018-07-01T01:11:54.509Z,18.45
2018-07-01T01:12:54.485Z,18.40
2018-07-01T01:13:54.447Z,18.43
2018-07-01T01:14:54.423Z,18.41
2018-07-01T01:15:54.373Z,18.40
2018-07-01T01:16:54.350Z,18.44
2018-07-01T01:17:54.357Z,18.38
2018-07-01T01:18:54.283Z,18.34
2018-07-01T01:19:54.249Z,18.33
2018-07-01T01:20:54.221Z,18.26
2018-07-01T01:21:54.186Z,18.35
2018-07-01T01:22:54.183Z,18.38
2018-07-01T01:23:54.125Z,18.31
2018-07-01T01:24:54.085Z,18.33
2018-07-01T01:25:54.094Z,18.19
2018-07-01T01:26:54.042Z,18.15
2018-07-01T01:27:53.990Z,18.16
2018-07-01T01:28:53.985Z,18.13
2018-07-01T01:29:53.931Z,18.07
2018-07-01T01:30:53.900Z,17.98
2018-07-01T01:31:53.862Z,17.90
2018-07-01T01:32:53.828Z,17.92
2018-07-01T01:33:53.827Z,17.82
2018-07-01T01:34:53.782Z,17.85
2018-07-01T01:35:53.851Z,17.78
2018-07-01T01:36:53.698Z,17.74
2018-07-01T01:37:53.685Z,17.78
2018-07-01T01:38:53.647Z,17.70
2018-07-01T01:39:54.157Z,17.71
2018-07-01T01:40:53.570Z,17.74
2018-07-01T01:41:53.533Z,17.79
2018-07-01T01:42:53.497Z,17.71
2018-07-01T01:43:53.477Z,17.68
2018-07-01T01:44:53.441Z,17.71
2018-07-01T01:45:53.439Z,17.72
2018-07-01T01:46:53.394Z,17.60
2018-07-01T01:47:53.354Z,17.71
2018-07-01T01:48:53.344Z,17.65
2018-07-01T01:49:53.267Z,17.78
2018-07-01T01:50:53.256Z,17.64
2018-07-01T01:51:53.279Z,17.60
2018-07-01T01:52:53.203Z,17.64
2018-07-01T01:53:53.178Z,17.64
2018-07-01T01:54:53.108Z,17.63
2018-07-01T01:55:53.115Z,17.49
2018-07-01T01:56:53.065Z,17.56
2018-07-01T01:57:53.014Z,17.48
2018-07-01T01:58:52.975Z,17.54
2018-07-01T01:59:52.968Z,17.38
2018-07-01T02:00:52.912Z,17.45
2018-07-01T02:01:52.883Z,17.38
2018-07-01T02:02:52.864Z,17.33
2018-07-01T02:03:52.837Z,17.31
2018-07-01T02:04:52.786Z,17.24
2018-07-01T02:05:52.755Z,17.26
2018-07-01T02:06:52.715Z,17.33
2018-07-01T02:07:52.689Z,17.42
2018-07-01T02:08:52.672Z,17.46
2018-07-01T02:09:52.627Z,17.42
2018-07-01T02:10:52.593Z,17.46
2018-07-01T02:11:52.557Z,17.41
2018-07-01T02:12:52.549Z,17.41
2018-07-01T02:13:52.518Z,17.30
2018-07-01T02:14:52.452Z,17.38
2018-07-01T02:15:52.426Z,17.22
2018-07-01T02:16:52.419Z,17.26
2018-07-01T02:17:52.352Z,17.26
2018-07-01T02:18:52.348Z,17.26
2018-07-01T02:19:52.293Z,17.20
2018-07-01T02:20:52.257Z,17.12
2018-07-01T02:21:52.229Z,17.16
2018-07-01T02:22:52.194Z,17.06
2018-07-01T02:23:52.208Z,17.11
2018-07-01T02:24:52.148Z,17.14
2018-07-01T02:25:52.109Z,17.12
2018-07-01T02:26:52.070Z,16.97
2018-07-01T02:27:52.066Z,17.02
2018-07-01T02:28:52.090Z,16.83
2018-07-01T02:29:51.979Z,16.86
2018-07-01T02:30:53.166Z,16.93
2018-07-01T02:31:53.124Z,16.84
2018-07-01T02:32:51.886Z,16.87
2018-07-01T02:33:51.907Z,16.75
2018-07-01T02:34:51.847Z,16.75
2018-07-01T02:35:51.854Z,16.76
2018-07-01T02:36:51.777Z,16.74
2018-07-01T02:37:51.707Z,16.69
2018-07-01T02:38:51.684Z,16.72
2018-07-01T02:39:51.635Z,16.68
2018-07-01T02:40:51.612Z,16.64
2018-07-01T02:41:51.600Z,16.60
2018-07-01T02:42:51.544Z,16.51
2018-07-01T02:43:51.551Z,16.69
2018-07-01T02:44:51.480Z,16.50
2018-07-01T02:45:51.509Z,16.64
2018-07-01T02:46:51.408Z,16.61
2018-07-01T02:47:51.395Z,16.61
2018-07-01T02:48:51.342Z,16.57
2018-07-01T02:49:51.334Z,16.57
2018-07-01T02:50:51.478Z,16.58
2018-07-01T02:51:51.241Z,16.56
2018-07-01T02:52:51.205Z,16.53
2018-07-01T02:53:51.267Z,16.50
2018-07-01T02:54:51.138Z,16.51
2018-07-01T02:55:51.115Z,16.47
2018-07-01T02:56:51.095Z,16.43
2018-07-01T02:57:51.065Z,16.39
2018-07-01T02:58:51.100Z,16.42
2018-07-01T02:59:51.015Z,16.41
2018-07-01T03:00:50.962Z,16.36
2018-07-01T03:01:50.941Z,16.32
2018-07-01T03:02:50.871Z,16.31
2018-07-01T03:03:50.843Z,16.46
2018-07-01T03:04:50.815Z,16.46
2018-07-01T03:05:50.806Z,16.49
2018-07-01T03:06:50.905Z,16.38
2018-07-01T03:07:50.751Z,16.49
2018-07-01T03:08:50.676Z,16.49
2018-07-01T03:09:50.645Z,16.49
2018-07-01T03:10:50.643Z,16.61
2018-07-01T03:11:50.631Z,16.53
2018-07-01T03:12:50.547Z,16.46
2018-07-01T03:13:50.521Z,16.51
2018-07-01T03:14:50.513Z,16.53
2018-07-01T03:15:50.464Z,16.61
2018-07-01T03:16:50.413Z,16.56
2018-07-01T03:17:50.414Z,16.57
2018-07-01T03:18:50.349Z,16.61
2018-07-01T03:19:50.313Z,16.60
2018-07-01T03:20:50.284Z,16.60
2018-07-01T03:21:50.248Z,16.66
2018-07-01T03:22:50.220Z,16.51
2018-07-01T03:23:50.179Z,16.58
2018-07-01T03:24:50.264Z,16.49
2018-07-01T03:25:50.113Z,16.47
2018-07-01T03:26:50.091Z,16.42
2018-07-01T03:27:50.061Z,16.29
2018-07-01T03:28:50.032Z,16.28
2018-07-01T03:29:49.995Z,16.38
2018-07-01T03:30:49.956Z,16.43
2018-07-01T03:31:49.926Z,16.49
2018-07-01T03:32:49.886Z,16.42
2018-07-01T03:33:49.852Z,16.49
2018-07-01T03:34:49.820Z,16.51
2018-07-01T03:35:49.784Z,16.43
2018-07-01T03:36:49.789Z,16.50
2018-07-01T03:37:49.738Z,16.49
2018-07-01T03:38:49.685Z,16.49
2018-07-01T03:39:49.657Z,16.46
2018-07-01T03:40:49.626Z,16.51
2018-07-01T03:41:50.133Z,16.57
2018-07-01T03:42:49.552Z,16.54
2018-07-01T03:43:49.541Z,16.53
2018-07-01T03:44:49.502Z,16.51
2018-07-01T03:45:49.454Z,16.57
2018-07-01T03:46:49.432Z,16.58
2018-07-01T03:47:49.401Z,16.57
2018-07-01T03:48:49.378Z,16.60
2018-07-01T03:49:49.361Z,16.54
2018-07-01T03:50:49.296Z,16.61
2018-07-01T03:51:49.273Z,16.61
2018-07-01T03:52:49.217Z,16.54
2018-07-01T03:53:49.214Z,16.56
2018-07-01T03:54:49.156Z,16.64
2018-07-01T03:55:49.507Z,16.66
2018-07-01T03:56:49.107Z,16.64
2018-07-01T03:57:49.205Z,16.64
2018-07-01T03:58:49.017Z,16.69
2018-07-01T03:59:48.995Z,16.60
2018-07-01T04:00:49.292Z,16.75
2018-07-01T04:01:48.979Z,16.64
2018-07-01T04:02:48.919Z,16.78
2018-07-01T04:03:48.896Z,16.72
2018-07-01T04:04:48.885Z,16.74
2018-07-01T04:05:48.792Z,16.79
2018-07-01T04:06:48.786Z,16.87
2018-07-01T04:07:48.766Z,16.83
2018-07-01T04:08:48.693Z,16.93
2018-07-01T04:09:48.669Z,16.94
2018-07-01T04:10:48.623Z,16.94
2018-07-01T04:11:48.612Z,16.93
2018-07-01T04:12:48.646Z,16.99
2018-07-01T04:13:48.560Z,16.93
2018-07-01T04:14:48.515Z,16.90
2018-07-01T04:15:48.513Z,16.96
2018-07-01T04:16:48.448Z,17.04
2018-07-01T04:17:48.395Z,17.01
2018-07-01T04:18:48.420Z,17.09
2018-07-01T04:19:48.328Z,17.08
2018-07-01T04:20:48.320Z,17.08
2018-07-01T04:21:48.274Z,17.04
2018-07-01T04:22:48.251Z,17.08
2018-07-01T04:23:48.225Z,17.02
2018-07-01T04:24:48.437Z,17.08
2018-07-01T04:25:48.154Z,17.11
2018-07-01T04:26:48.098Z,17.06
2018-07-01T04:27:48.083Z,17.02
2018-07-01T04:28:48.056Z,17.09
2018-07-01T04:29:48.023Z,17.08
2018-07-01T04:30:47.968Z,17.23
2018-07-01T04:31:47.949Z,17.11
2018-07-01T04:32:47.950Z,17.27
2018-07-01T04:33:47.876Z,17.26
2018-07-01T04:34:47.838Z,17.23
2018-07-01T04:35:47.828Z,17.36
2018-07-01T04:36:47.826Z,17.45
2018-07-01T04:37:47.790Z,17.49
2018-07-01T04:38:47.705Z,17.51
2018-07-01T04:39:47.682Z,17.51
2018-07-01T04:40:47.643Z,17.52
2018-07-01T04:41:47.613Z,17.60
2018-07-01T04:42:47.581Z,17.64
2018-07-01T04:43:47.646Z,17.70
2018-07-01T04:44:47.528Z,17.78
2018-07-01T04:45:47.483Z,17.72
2018-07-01T04:46:47.477Z,17.68
2018-07-01T04:47:47.527Z,17.70
2018-07-01T04:48:47.404Z,17.86
2018-07-01T04:49:47.371Z,17.90
2018-07-01T04:50:47.368Z,17.92
2018-07-01T04:51:47.290Z,18.03
2018-07-01T04:52:47.274Z,18.07
2018-07-01T04:53:47.229Z,18.03
2018-07-01T04:54:47.185Z,18.00
2018-07-01T04:55:47.164Z,17.98
2018-07-01T04:56:47.150Z,18.08
2018-07-01T04:57:47.101Z,18.16
2018-07-01T04:58:47.079Z,18.13
2018-07-01T04:59:47.032Z,18.26
2018-07-01T05:00:47.013Z,18.35
2018-07-01T05:01:47.038Z,18.33
2018-07-01T05:02:46.926Z,18.45
2018-07-01T05:03:46.908Z,18.58
2018-07-01T05:04:46.874Z,18.52
2018-07-01T05:05:46.878Z,18.50
2018-07-01T05:06:46.859Z,18.45
2018-07-01T05:07:46.770Z,18.43
2018-07-01T05:08:47.118Z,18.45
2018-07-01T05:09:46.712Z,18.49
2018-07-01T05:10:46.722Z,18.50
2018-07-01T05:11:46.657Z,18.52
2018-07-01T05:12:46.605Z,18.63
2018-07-01T05:13:46.594Z,18.62
2018-07-01T05:14:46.549Z,18.58
2018-07-01T05:15:46.514Z,18.63
2018-07-01T05:16:46.536Z,18.77
2018-07-01T05:17:46.510Z,18.73
2018-07-01T05:18:46.413Z,18.73
2018-07-01T05:19:46.475Z,18.80
2018-07-01T05:20:46.440Z,18.77
2018-07-01T05:21:46.329Z,18.75
2018-07-01T05:22:46.336Z,18.78
2018-07-01T05:23:46.256Z,18.81
2018-07-01T05:24:46.245Z,18.90
2018-07-01T05:25:46.221Z,18.84
2018-07-01T05:26:46.185Z,18.80
2018-07-01T05:27:46.132Z,18.95
2018-07-01T05:28:46.100Z,18.90
2018-07-01T05:29:46.064Z,19.04
2018-07-01T05:30:46.043Z,19.14
2018-07-01T05:31:46.005Z,19.16
2018-07-01T05:32:45.972Z,19.15
2018-07-01T05:33:46.012Z,19.16
2018-07-01T05:34:45.906Z,19.18
2018-07-01T05:35:45.874Z,19.27
2018-07-01T05:36:45.849Z,19.22
2018-07-01T05:37:45.813Z,19.30
2018-07-01T05:38:45.779Z,19.39
2018-07-01T05:39:45.749Z,19.47
2018-07-01T05:40:45.717Z,19.45
2018-07-01T05:41:45.685Z,19.47
2018-07-01T05:42:45.656Z,19.52
2018-07-01T05:43:45.620Z,19.54
2018-07-01T05:44:45.589Z,19.59
2018-07-01T05:45:45.556Z,19.62
2018-07-01T05:46:45.526Z,19.63
2018-07-01T05:47:45.496Z,19.59
2018-07-01T05:48:45.463Z,19.77
2018-07-01T05:49:45.581Z,19.85
2018-07-01T05:50:45.398Z,19.85
2018-07-01T05:51:45.365Z,19.76
2018-07-01T05:52:45.336Z,19.94
2018-07-01T05:53:45.302Z,19.85
2018-07-01T05:54:45.272Z,19.81
2018-07-01T05:55:45.240Z,19.84
2018-07-01T05:56:45.210Z,19.92
2018-07-01T05:57:45.176Z,19.96
2018-07-01T05:58:45.143Z,19.96
2018-07-01T05:59:45.115Z,19.89
2018-07-01T06:00:45.088Z,19.88
2018-07-01T06:01:45.052Z,19.89
2018-07-01T06:02:45.023Z,19.99
2018-07-01T06:03:44.990Z,20.00
2018-07-01T06:04:44.958Z,20.07
2018-07-01T06:05:44.926Z,20.03
2018-07-01T06:06:44.892Z,20.07
2018-07-01T06:07:44.861Z,20.22
2018-07-01T06:08:44.864Z,20.28
2018-07-01T06:09:44.798Z,20.36
2018-07-01T06:10:44.767Z,20.34
2018-07-01T06:11:44.737Z,20.37
2018-07-01T06:12:44.705Z,20.39
2018-07-01T06:13:44.671Z,20.32
2018-07-01T06:14:44.642Z,20.48
2018-07-01T06:15:44.612Z,20.52
2018-07-01T06:16:44.607Z,20.52
2018-07-01T06:17:44.547Z,20.55
2018-07-01T06:18:44.524Z,20.52
2018-07-01T06:19:44.485Z,20.56
2018-07-01T06:20:44.454Z,20.66
2018-07-01T06:21:44.424Z,20.65
2018-07-01T06:22:44.395Z,20.62
2018-07-01T06:23:44.360Z,20.52
2018-07-01T06:24:44.329Z,20.63
2018-07-01T06:25:44.296Z,20.77
2018-07-01T06:26:44.266Z,20.77
2018-07-01T06:27:44.230Z,20.82
2018-07-01T06:28:44.205Z,20.84
2018-07-01T06:29:44.171Z,20.90
2018-07-01T06:30:44.143Z,20.99
2018-07-01T06:31:44.111Z,21.05
2018-07-01T06:32:44.111Z,21.12
2018-07-01T06:33:44.066Z,21.03
2018-07-01T06:34:44.021Z,21.02
2018-07-01T06:35:43.986Z,20.96
2018-07-01T06:36:43.956Z,20.95
2018-07-01T06:37:44.029Z,21.03
2018-07-01T06:38:44.052Z,21.21
2018-07-01T06:39:43.860Z,21.05
2018-07-01T06:40:43.853Z,21.02
2018-07-01T06:41:43.798Z,21.02
2018-07-01T06:42:43.771Z,21.02
2018-07-01T06:43:43.737Z,21.09
2018-07-01T06:44:43.718Z,21.02
2018-07-01T06:45:43.672Z,21.11
2018-07-01T06:46:43.644Z,21.17
2018-07-01T06:47:43.611Z,21.14
2018-07-01T06:48:43.582Z,21.22
2018-07-01T06:49:43.549Z,21.25
2018-07-01T06:50:43.517Z,21.29
2018-07-01T06:51:43.489Z,21.37
2018-07-01T06:52:43.470Z,21.54
2018-07-01T06:53:43.426Z,21.70
2018-07-01T06:54:43.393Z,21.67
2018-07-01T06:55:43.365Z,21.85
2018-07-01T06:56:43.331Z,21.70
2018-07-01T06:57:43.299Z,21.67
2018-07-01T06:58:43.273Z,21.73
2018-07-01T06:59:43.239Z,21.73
2018-07-01T07:00:43.210Z,21.64
2018-07-01T07:01:43.169Z,21.67
2018-07-01T07:02:43.150Z,21.70
2018-07-01T07:03:43.115Z,21.79
2018-07-01T07:04:43.087Z,21.83
2018-07-01T07:05:43.052Z,22.04
2018-07-01T07:06:43.023Z,22.10
2018-07-01T07:07:43.028Z,22.00
2018-07-01T07:08:42.964Z,22.08
2018-07-01T07:09:43.118Z,22.08
2018-07-01T07:10:42.901Z,22.14
2018-07-01T07:11:42.873Z,22.11
2018-07-01T07:12:42.840Z,22.13
2018-07-01T07:13:42.810Z,22.29
2018-07-01T07:14:42.776Z,22.25
2018-07-01T07:15:42.748Z,22.14
2018-07-01T07:16:42.716Z,22.13
2018-07-01T07:17:42.686Z,22.15
2018-07-01T07:18:42.653Z,22.28
2018-07-01T07:19:42.624Z,22.28
2018-07-01T07:20:42.591Z,22.54
2018-07-01T07:21:42.564Z,22.45
2018-07-01T07:22:42.532Z,22.59
2018-07-01T07:23:42.501Z,22.68
2018-07-01T07:24:42.477Z,22.70
2018-07-01T07:25:42.443Z,22.88
2018-07-01T07:26:42.411Z,23.08
2018-07-01T07:27:42.379Z,23.02
2018-07-01T07:28:42.350Z,23.06
2018-07-01T07:29:42.320Z,23.09
2018-07-01T07:30:42.315Z,23.09
2018-07-01T07:31:42.258Z,23.13
2018-07-01T07:32:42.229Z,22.98
2018-07-01T07:33:42.197Z,22.83
2018-07-01T07:34:42.168Z,22.96
2018-07-01T07:35:42.136Z,22.99
2018-07-01T07:36:42.107Z,23.09
2018-07-01T07:37:42.076Z,23.00
2018-07-01T07:38:42.045Z,22.88
2018-07-01T07:39:42.017Z,22.96
2018-07-01T07:40:41.989Z,23.02
2018-07-01T07:41:42.726Z,22.96
2018-07-01T07:42:41.927Z,22.90
2018-07-01T07:43:42.373Z,22.93
2018-07-01T07:44:41.865Z,22.87
2018-07-01T07:45:41.841Z,22.83
2018-07-01T07:46:41.805Z,22.91
2018-07-01T07:47:41.774Z,22.90
2018-07-01T07:48:41.767Z,23.00
2018-07-01T07:49:41.716Z,23.08
2018-07-01T07:50:41.684Z,23.28
2018-07-01T07:51:41.655Z,23.41
2018-07-01T07:52:41.627Z,23.58
2018-07-01T07:53:41.595Z,23.48
2018-07-01T07:54:41.569Z,23.47
2018-07-01T07:55:41.536Z,23.43
2018-07-01T07:56:41.504Z,23.63
2018-07-01T07:57:41.475Z,23.69
2018-07-01T07:58:41.444Z,23.56
2018-07-01T07:59:41.440Z,23.77
2018-07-01T08:00:41.386Z,23.73
2018-07-01T08:01:41.358Z,23.59
2018-07-01T08:02:41.326Z,23.58
2018-07-01T08:03:44.276Z,23.46
2018-07-01T08:04:41.272Z,23.46
2018-07-01T08:05:41.238Z,23.59
2018-07-01T08:06:41.200Z,23.69
2018-07-01T08:07:41.177Z,24.06
2018-07-01T08:08:41.151Z,24.24
2018-07-01T08:09:41.120Z,24.14
2018-07-01T08:10:41.091Z,24.08
2018-07-01T08:11:41.059Z,24.20
2018-07-01T08:12:41.040Z,24.18
2018-07-01T08:13:41.004Z,24.20
2018-07-01T08:14:40.979Z,24.42
2018-07-01T08:15:40.946Z,24.45
2018-07-01T08:16:40.924Z,24.43
2018-07-01T08:17:40.889Z,24.39
2018-07-01T08:18:40.861Z,24.38
2018-07-01T08:19:40.833Z,24.35
2018-07-01T08:20:40.806Z,24.29
2018-07-01T08:21:40.775Z,24.38
2018-07-01T08:22:40.746Z,24.45
2018-07-01T08:23:40.718Z,24.68
2018-07-01T08:24:40.691Z,24.70
2018-07-01T08:25:40.659Z,24.81
2018-07-01T08:26:40.636Z,24.47
2018-07-01T08:27:40.606Z,24.36
2018-07-01T08:28:40.577Z,24.55
2018-07-01T08:29:40.542Z,24.58
2018-07-01T08:30:40.520Z,24.76
2018-07-01T08:31:40.490Z,24.76
2018-07-01T08:32:40.462Z,24.80
2018-07-01T08:33:40.438Z,24.85
2018-07-01T08:34:40.443Z,24.89
2018-07-01T08:35:40.383Z,24.98
2018-07-01T08:36:40.352Z,25.11
2018-07-01T08:37:40.325Z,25.04
2018-07-01T08:38:40.296Z,24.70
2018-07-01T08:39:40.270Z,24.93
2018-07-01T08:40:40.243Z,24.88
2018-07-01T08:41:40.213Z,24.98
2018-07-01T08:42:40.187Z,24.93
2018-07-01T08:43:40.159Z,25.18
2018-07-01T08:44:40.129Z,25.43
2018-07-01T08:45:40.104Z,25.41
2018-07-01T08:46:40.074Z,25.51
2018-07-01T08:47:40.187Z,25.55
2018-07-01T08:48:40.213Z,25.38
2018-07-01T08:49:39.998Z,25.44
2018-07-01T08:50:39.965Z,25.77
2018-07-01T08:51:39.937Z,25.88
2018-07-01T08:52:39.976Z,26.06
2018-07-01T08:53:39.884Z,26.15
2018-07-01T08:54:39.857Z,26.15
2018-07-01T08:55:39.836Z,26.25
2018-07-01T08:56:39.805Z,26.16
2018-07-01T08:57:39.773Z,25.91
2018-07-01T08:58:39.748Z,26.02
2018-07-01T08:59:39.733Z,25.98
2018-07-01T09:00:39.696Z,26.19
2018-07-01T09:01:39.671Z,26.15
2018-07-01T09:02:39.641Z,26.06
2018-07-01T09:03:39.618Z,26.06
2018-07-01T09:04:39.590Z,25.99
2018-07-01T09:05:39.565Z,26.16
2018-07-01T09:06:39.528Z,26.03
2018-07-01T09:07:39.509Z,26.26
2018-07-01T09:08:39.526Z,26.38
2018-07-01T09:09:39.457Z,26.70
2018-07-01T09:10:39.430Z,26.28
2018-07-01T09:11:39.403Z,26.38
2018-07-01T09:12:39.375Z,26.51
2018-07-01T09:13:39.349Z,26.51
2018-07-01T09:14:39.344Z,26.55
2018-07-01T09:15:39.297Z,26.43
2018-07-01T09:16:39.274Z,26.56
2018-07-01T09:17:39.243Z,26.56
2018-07-01T09:18:39.214Z,26.66
2018-07-01T09:19:39.190Z,26.97
2018-07-01T09:20:39.164Z,27.44
2018-07-01T09:21:39.135Z,27.39
2018-07-01T09:22:39.110Z,27.54
2018-07-01T09:23:39.082Z,27.44
2018-07-01T09:24:39.056Z,27.30
2018-07-01T09:25:39.028Z,27.51
2018-07-01T09:26:39.011Z,27.30
2018-07-01T09:27:38.981Z,27.03
2018-07-01T09:28:38.953Z,27.27
2018-07-01T09:29:38.926Z,27.48
2018-07-01T09:30:38.900Z,27.54
2018-07-01T09:31:38.875Z,27.59
2018-07-01T09:32:38.849Z,27.75
2018-07-01T09:33:38.819Z,27.83
2018-07-01T09:34:38.816Z,28.10
2018-07-01T09:35:38.770Z,28.30
2018-07-01T09:36:38.749Z,28.30
2018-07-01T09:37:38.717Z,28.17
2018-07-01T09:38:38.695Z,28.45
2018-07-01T09:39:38.667Z,28.57
2018-07-01T09:40:38.642Z,28.56
2018-07-01T09:41:39.537Z,28.33
2018-07-01T09:42:38.590Z,28.47
2018-07-01T09:43:38.564Z,28.22
2018-07-01T09:44:38.539Z,28.25
2018-07-01T09:45:38.511Z,27.92
2018-07-01T09:46:38.486Z,27.98
2018-07-01T09:47:38.461Z,28.19
2018-07-01T09:48:38.438Z,28.27
2018-07-01T09:49:38.412Z,28.33
2018-07-01T09:50:38.442Z,28.32
2018-07-01T09:51:38.357Z,28.11
2018-07-01T09:52:38.335Z,28.10
2018-07-01T09:53:38.316Z,28.19
2018-07-01T09:54:38.279Z,28.42
2018-07-01T09:55:38.258Z,28.75
2018-07-01T09:56:38.233Z,28.86
2018-07-01T09:57:38.205Z,29.16
2018-07-01T09:58:38.182Z,29.50
2018-07-01T09:59:38.156Z,29.34
2018-07-01T10:00:38.756Z,29.35
2018-07-01T10:01:38.104Z,29.14
2018-07-01T10:02:38.080Z,29.31
2018-07-01T10:03:38.051Z,29.17
2018-07-01T10:04:38.039Z,29.31
2018-07-01T10:05:38.006Z,29.75
2018-07-01T10:06:37.980Z,30.28
2018-07-01T10:07:37.951Z,30.19
2018-07-01T10:08:37.930Z,29.94
2018-07-01T10:09:37.902Z,30.15
2018-07-01T10:10:37.875Z,30.25
2018-07-01T10:11:37.853Z,30.61
2018-07-01T10:12:37.827Z,30.70
2018-07-01T10:13:37.802Z,30.54
2018-07-01T10:14:37.777Z,31.29
2018-07-01T10:15:37.755Z,31.65
2018-07-01T10:16:37.728Z,31.29
2018-07-01T10:17:37.703Z,31.29
2018-07-01T10:18:37.678Z,31.12
2018-07-01T10:19:37.655Z,30.91
2018-07-01T10:20:37.629Z,31.06
2018-07-01T10:21:37.606Z,31.12
2018-07-01T10:22:37.580Z,31.09
2018-07-01T10:24:03.168Z,31.06
2018-07-01T10:24:37.529Z,31.42
2018-07-01T10:25:37.509Z,31.62
2018-07-01T10:26:37.537Z,32.03
2018-07-01T10:27:37.458Z,31.97
2018-07-01T10:28:37.439Z,31.73
2018-07-01T10:29:37.407Z,31.69
2018-07-01T10:30:37.382Z,31.61
2018-07-01T10:31:37.364Z,31.81
2018-07-01T10:32:37.334Z,32.11
2018-07-01T10:33:37.310Z,32.12
2018-07-01T10:34:37.287Z,32.63
2018-07-01T10:35:37.262Z,32.75
2018-07-01T10:36:37.240Z,32.92
2018-07-01T10:37:37.219Z,32.71
2018-07-01T10:38:37.191Z,32.71
2018-07-01T10:39:37.185Z,33.34
2018-07-01T10:40:37.143Z,33.22
2018-07-01T10:41:37.117Z,33.34
2018-07-01T10:42:37.092Z,33.09
2018-07-01T10:43:37.070Z,33.08
2018-07-01T10:44:37.046Z,32.82
2018-07-01T10:45:37.032Z,32.51
2018-07-01T10:46:36.996Z,32.26
2018-07-01T10:47:36.972Z,32.43
2018-07-01T10:48:36.947Z,32.55
2018-07-01T10:49:37.484Z,31.92
2018-07-01T10:50:36.899Z,31.94
2018-07-01T10:51:36.922Z,32.23
2018-07-01T10:52:36.851Z,32.16
2018-07-01T10:53:36.826Z,31.94
2018-07-01T10:54:36.804Z,32.00
2018-07-01T10:55:36.783Z,32.31
2018-07-01T10:56:36.754Z,32.64
2018-07-01T10:57:36.777Z,32.70
2018-07-01T10:58:36.705Z,32.53
2018-07-01T10:59:36.682Z,32.59
2018-07-01T11:00:36.659Z,32.80
2018-07-01T11:01:36.727Z,33.23
2018-07-01T11:02:36.607Z,33.80
2018-07-01T11:03:36.589Z,33.92
2018-07-01T11:04:36.560Z,34.10
2018-07-01T11:05:36.790Z,33.73
2018-07-01T11:06:36.966Z,34.01
2018-07-01T11:07:36.488Z,33.86
2018-07-01T11:08:36.462Z,34.11
2018-07-01T11:09:36.439Z,34.08
2018-07-01T11:10:36.420Z,34.02
2018-07-01T11:11:36.432Z,34.20
2018-07-01T11:12:36.367Z,34.61
2018-07-01T11:13:36.345Z,34.40
2018-07-01T11:14:36.319Z,34.71
2018-07-01T11:15:36.297Z,35.29
2018-07-01T11:16:36.265Z,35.11
2018-07-01T11:17:36.248Z,35.04
2018-07-01T11:18:36.226Z,35.70
2018-07-01T11:19:36.199Z,35.88
2018-07-01T11:20:36.178Z,36.31
2018-07-01T11:21:36.155Z,36.17
2018-07-01T11:22:36.135Z,35.29
2018-07-01T11:23:36.103Z,35.46
2018-07-01T11:24:36.082Z,35.52
2018-07-01T11:25:36.060Z,35.07
2018-07-01T11:26:36.100Z,35.31
2018-07-01T11:27:36.180Z,35.29
2018-07-01T11:28:36.001Z,35.27
2018-07-01T11:29:36.006Z,35.31
2018-07-01T11:30:35.944Z,35.11
2018-07-01T11:31:36.357Z,35.33
2018-07-01T11:32:35.895Z,35.51
2018-07-01T11:33:35.872Z,34.97
2018-07-01T11:34:35.844Z,34.67
2018-07-01T11:35:35.822Z,34.80
2018-07-01T11:36:35.831Z,34.67
2018-07-01T11:37:35.775Z,34.90
2018-07-01T11:38:35.750Z,35.08
2018-07-01T11:39:35.736Z,34.88
2018-07-01T11:40:35.704Z,35.44
2018-07-01T11:41:35.701Z,35.89
2018-07-01T11:42:35.726Z,35.85
2018-07-01T11:43:35.637Z,36.04
2018-07-01T11:44:35.624Z,36.40
2018-07-01T11:45:35.580Z,36.65
2018-07-01T11:46:35.560Z,36.74
2018-07-01T11:47:35.701Z,36.81
2018-07-01T11:48:35.515Z,36.79
2018-07-01T11:49:35.494Z,36.95
2018-07-01T11:50:35.475Z,36.55
2018-07-01T11:51:35.463Z,36.74
2018-07-01T11:52:35.425Z,36.95
2018-07-01T11:53:35.399Z,37.39
2018-07-01T11:54:35.382Z,37.56
2018-07-01T11:55:35.355Z,36.64
2018-07-01T11:56:35.331Z,36.24
2018-07-01T11:57:35.307Z,36.30
2018-07-01T11:58:35.281Z,35.52
2018-07-01T11:59:35.259Z,35.68
2018-07-01T12:00:35.265Z,36.20
2018-07-01T12:01:35.213Z,36.68
2018-07-01T12:02:35.191Z,36.49
2018-07-01T12:03:35.175Z,36.17
2018-07-01T12:04:35.144Z,36.08
2018-07-01T12:05:35.277Z,36.21
2018-07-01T12:06:35.099Z,35.46
2018-07-01T12:07:35.074Z,34.90
2018-07-01T12:08:35.049Z,35.27
2018-07-01T12:09:35.026Z,34.97
2018-07-01T12:10:35.005Z,34.80
2018-07-01T12:11:34.980Z,35.31
2018-07-01T12:12:34.960Z,35.61
2018-07-01T12:13:34.933Z,36.04
2018-07-01T12:14:34.910Z,35.95
2018-07-01T12:15:34.885Z,35.70
2018-07-01T12:16:34.869Z,35.30
2018-07-01T12:17:34.840Z,35.08
2018-07-01T12:18:34.815Z,35.52
2018-07-01T12:19:34.788Z,35.71
2018-07-01T12:20:34.770Z,36.04
2018-07-01T12:21:34.745Z,35.52
2018-07-01T12:22:35.482Z,35.11
2018-07-01T12:23:34.765Z,34.89
2018-07-01T12:24:34.673Z,34.93
2018-07-01T12:25:34.650Z,35.18
2018-07-01T12:26:34.630Z,35.60
2018-07-01T12:27:34.606Z,36.01
2018-07-01T12:28:34.581Z,36.51
2018-07-01T12:29:34.558Z,36.81
2018-07-01T12:30:34.531Z,36.93
2018-07-01T12:31:34.506Z,37.10
2018-07-01T12:32:34.718Z,37.14
2018-07-01T12:33:34.459Z,37.28
2018-07-01T12:34:34.436Z,37.37
2018-07-01T12:35:34.415Z,37.32
2018-07-01T12:36:34.391Z,36.81
2018-07-01T12:37:34.368Z,36.86
2018-07-01T12:38:34.344Z,36.61
2018-07-01T12:39:34.318Z,36.54
2018-07-01T12:40:34.297Z,36.14
2018-07-01T12:41:34.273Z,36.14
2018-07-01T12:42:34.252Z,36.57
2018-07-01T12:43:34.227Z,36.58
2018-07-01T12:44:34.205Z,36.72
2018-07-01T12:45:34.185Z,37.02
2018-07-01T12:46:34.158Z,37.29
2018-07-01T12:47:34.134Z,38.08
2018-07-01T12:48:34.132Z,38.05
2018-07-01T12:49:34.089Z,38.46
2018-07-01T12:50:34.067Z,38.46
2018-07-01T12:51:34.105Z,39.06
2018-07-01T12:52:34.019Z,39.31